sensor_id;sensor_type;location;lat;lon;timestamp;P1;durP1;ratioP1;P2;durP2;ratioP2
21822;SDS011;11074;48.596;9.238;2023-05-07T00:01:50;4.10;;;2.42;;
21822;SDS011;11074;48.596;9.238;2023-05-07T00:04:15;5.50;;;2.45;;
21822;SDS011;11074;48.596;9.238;2023-05-07T00:06:41;5.00;;;2.90;;
21822;SDS011;11074;48.596;9.238;2023-05-07T00:09:06;3.47;;;2.60;;
21822;SDS011;11074;48.596;9.238;2023-05-07T00:11:33;7.20;;;2.85;;
21822;SDS011;11074;48.596;9.238;2023-05-07T00:13:59;4.50;;;2.63;;
21822;SDS011;11074;48.596;9.238;2023-05-07T00:16:24;5.70;;;2.40;;
21822;SDS011;11074;48.596;9.238;2023-05-07T00:18:50;5.55;;;2.65;;
21822;SDS011;11074;48.596;9.238;2023-05-07T00:21:17;4.53;;;2.70;;
21822;SDS011;11074;48.596;9.238;2023-05-07T00:23:43;5.03;;;2.60;;
21822;SDS011;11074;48.596;9.238;2023-05-07T00:26:09;4.68;;;2.75;;
21822;SDS011;11074;48.596;9.238;2023-05-07T00:28:34;5.35;;;2.92;;
21822;SDS011;11074;48.596;9.238;2023-05-07T00:31:00;4.78;;;2.72;;
21822;SDS011;11074;48.596;9.238;2023-05-07T00:33:26;3.38;;;2.58;;
21822;SDS011;11074;48.596;9.238;2023-05-07T00:35:52;5.53;;;2.72;;
21822;SDS011;11074;48.596;9.238;2023-05-07T00:38:19;5.22;;;2.60;;
21822;SDS011;11074;48.596;9.238;2023-05-07T00:40:45;4.97;;;2.70;;
21822;SDS011;11074;48.596;9.238;2023-05-07T00:43:11;3.40;;;2.40;;
21822;SDS011;11074;48.596;9.238;2023-05-07T00:45:37;3.08;;;2.40;;
21822;SDS011;11074;48.596;9.238;2023-05-07T00:48:03;5.30;;;2.67;;
21822;SDS011;11074;48.596;9.238;2023-05-07T00:50:30;6.68;;;2.80;;
21822;SDS011;11074;48.596;9.238;2023-05-07T00:52:57;4.10;;;2.63;;
21822;SDS011;11074;48.596;9.238;2023-05-07T00:55:25;4.20;;;2.75;;
21822;SDS011;11074;48.596;9.238;2023-05-07T00:57:50;4.32;;;2.20;;
21822;SDS011;11074;48.596;9.238;2023-05-07T01:00:17;5.28;;;2.70;;
21822;SDS011;11074;48.596;9.238;2023-05-07T01:02:43;7.07;;;3.10;;
21822;SDS011;11074;48.596;9.238;2023-05-07T01:05:10;3.55;;;2.50;;
21822;SDS011;11074;48.596;9.238;2023-05-07T01:07:40;6.25;;;2.88;;
21822;SDS011;11074;48.596;9.238;2023-05-07T01:10:07;3.42;;;2.70;;
21822;SDS011;11074;48.596;9.238;2023-05-07T01:12:36;5.32;;;2.50;;
21822;SDS011;11074;48.596;9.238;2023-05-07T01:15:05;4.60;;;2.30;;
21822;SDS011;11074;48.596;9.238;2023-05-07T01:17:33;5.82;;;2.70;;
21822;SDS011;11074;48.596;9.238;2023-05-07T01:20:05;5.18;;;2.70;;
21822;SDS011;11074;48.596;9.238;2023-05-07T01:22:33;5.25;;;2.42;;
21822;SDS011;11074;48.596;9.238;2023-05-07T01:25:01;2.88;;;2.25;;
21822;SDS011;11074;48.596;9.238;2023-05-07T01:27:35;3.33;;;2.33;;
21822;SDS011;11074;48.596;9.238;2023-05-07T01:30:02;4.53;;;2.15;;
21822;SDS011;11074;48.596;9.238;2023-05-07T01:32:37;3.42;;;2.30;;
21822;SDS011;11074;48.596;9.238;2023-05-07T01:35:09;6.93;;;2.63;;
21822;SDS011;11074;48.596;9.238;2023-05-07T01:37:40;3.50;;;2.35;;
21822;SDS011;11074;48.596;9.238;2023-05-07T01:40:07;3.88;;;2.60;;
21822;SDS011;11074;48.596;9.238;2023-05-07T01:42:34;3.80;;;2.60;;
21822;SDS011;11074;48.596;9.238;2023-05-07T01:45:00;3.20;;;2.50;;
21822;SDS011;11074;48.596;9.238;2023-05-07T01:47:26;7.50;;;2.53;;
21822;SDS011;11074;48.596;9.238;2023-05-07T01:49:52;5.32;;;2.40;;
21822;SDS011;11074;48.596;9.238;2023-05-07T01:52:19;5.43;;;2.90;;
21822;SDS011;11074;48.596;9.238;2023-05-07T01:54:45;3.50;;;2.50;;
21822;SDS011;11074;48.596;9.238;2023-05-07T01:57:10;4.03;;;2.65;;
21822;SDS011;11074;48.596;9.238;2023-05-07T01:59:36;5.43;;;2.55;;
21822;SDS011;11074;48.596;9.238;2023-05-07T02:02:01;3.90;;;2.90;;
21822;SDS011;11074;48.596;9.238;2023-05-07T02:04:27;7.00;;;2.50;;
21822;SDS011;11074;48.596;9.238;2023-05-07T02:06:53;3.30;;;2.70;;
21822;SDS011;11074;48.596;9.238;2023-05-07T02:09:18;5.43;;;2.92;;
21822;SDS011;11074;48.596;9.238;2023-05-07T02:11:44;3.83;;;2.53;;
21822;SDS011;11074;48.596;9.238;2023-05-07T02:14:10;5.57;;;2.67;;
21822;SDS011;11074;48.596;9.238;2023-05-07T02:16:36;4.82;;;3.00;;
21822;SDS011;11074;48.596;9.238;2023-05-07T02:19:01;4.35;;;3.10;;
21822;SDS011;11074;48.596;9.238;2023-05-07T02:21:27;4.53;;;3.22;;
21822;SDS011;11074;48.596;9.238;2023-05-07T02:23:53;6.43;;;2.92;;
21822;SDS011;11074;48.596;9.238;2023-05-07T02:26:19;6.45;;;2.88;;
21822;SDS011;11074;48.596;9.238;2023-05-07T02:28:46;5.25;;;2.90;;
21822;SDS011;11074;48.596;9.238;2023-05-07T02:31:12;4.22;;;2.78;;
21822;SDS011;11074;48.596;9.238;2023-05-07T02:33:37;4.60;;;2.97;;
21822;SDS011;11074;48.596;9.238;2023-05-07T02:36:07;4.32;;;2.90;;
21822;SDS011;11074;48.596;9.238;2023-05-07T02:38:34;5.65;;;2.70;;
21822;SDS011;11074;48.596;9.238;2023-05-07T02:41:00;3.40;;;2.70;;
21822;SDS011;11074;48.596;9.238;2023-05-07T02:43:26;4.43;;;2.50;;
21822;SDS011;11074;48.596;9.238;2023-05-07T02:46:01;5.28;;;2.90;;
21822;SDS011;11074;48.596;9.238;2023-05-07T02:48:31;6.45;;;2.90;;
21822;SDS011;11074;48.596;9.238;2023-05-07T02:50:57;3.58;;;2.90;;
21822;SDS011;11074;48.596;9.238;2023-05-07T02:53:24;3.75;;;2.83;;
21822;SDS011;11074;48.596;9.238;2023-05-07T02:55:54;4.25;;;3.05;;
21822;SDS011;11074;48.596;9.238;2023-05-07T02:58:22;4.38;;;2.85;;
21822;SDS011;11074;48.596;9.238;2023-05-07T03:00:48;4.18;;;3.03;;
21822;SDS011;11074;48.596;9.238;2023-05-07T03:03:14;5.93;;;2.55;;
21822;SDS011;11074;48.596;9.238;2023-05-07T03:05:40;3.17;;;2.55;;
21822;SDS011;11074;48.596;9.238;2023-05-07T03:08:06;4.50;;;2.70;;
21822;SDS011;11074;48.596;9.238;2023-05-07T03:10:33;4.32;;;2.80;;
21822;SDS011;11074;48.596;9.238;2023-05-07T03:13:00;6.28;;;3.08;;
21822;SDS011;11074;48.596;9.238;2023-05-07T03:15:26;6.45;;;3.10;;
21822;SDS011;11074;48.596;9.238;2023-05-07T03:17:52;4.45;;;2.80;;
21822;SDS011;11074;48.596;9.238;2023-05-07T03:20:17;6.35;;;2.90;;
21822;SDS011;11074;48.596;9.238;2023-05-07T03:22:43;3.80;;;2.58;;
21822;SDS011;11074;48.596;9.238;2023-05-07T03:25:09;3.15;;;2.40;;
21822;SDS011;11074;48.596;9.238;2023-05-07T03:27:35;3.33;;;2.47;;
21822;SDS011;11074;48.596;9.238;2023-05-07T03:30:01;3.42;;;2.63;;
21822;SDS011;11074;48.596;9.238;2023-05-07T03:32:27;5.15;;;2.72;;
21822;SDS011;11074;48.596;9.238;2023-05-07T03:34:53;4.72;;;3.33;;
21822;SDS011;11074;48.596;9.238;2023-05-07T03:37:18;4.38;;;2.72;;
21822;SDS011;11074;48.596;9.238;2023-05-07T03:39:44;3.83;;;2.80;;
21822;SDS011;11074;48.596;9.238;2023-05-07T03:42:10;5.63;;;3.13;;
21822;SDS011;11074;48.596;9.238;2023-05-07T03:44:36;4.50;;;2.97;;
21822;SDS011;11074;48.596;9.238;2023-05-07T03:47:02;4.40;;;2.78;;
21822;SDS011;11074;48.596;9.238;2023-05-07T03:49:28;7.88;;;2.97;;
21822;SDS011;11074;48.596;9.238;2023-05-07T03:51:54;5.30;;;3.20;;
21822;SDS011;11074;48.596;9.238;2023-05-07T03:54:20;5.47;;;2.80;;
21822;SDS011;11074;48.596;9.238;2023-05-07T03:56:46;4.38;;;3.08;;
21822;SDS011;11074;48.596;9.238;2023-05-07T03:59:14;3.88;;;2.78;;
21822;SDS011;11074;48.596;9.238;2023-05-07T04:01:40;5.40;;;2.70;;
21822;SDS011;11074;48.596;9.238;2023-05-07T04:04:06;4.38;;;2.95;;
21822;SDS011;11074;48.596;9.238;2023-05-07T04:06:31;4.70;;;2.70;;
21822;SDS011;11074;48.596;9.238;2023-05-07T04:08:57;4.57;;;2.90;;
21822;SDS011;11074;48.596;9.238;2023-05-07T04:11:23;3.63;;;3.03;;
21822;SDS011;11074;48.596;9.238;2023-05-07T04:13:49;5.32;;;3.00;;
21822;SDS011;11074;48.596;9.238;2023-05-07T04:16:15;6.90;;;3.05;;
21822;SDS011;11074;48.596;9.238;2023-05-07T04:18:41;5.85;;;2.95;;
21822;SDS011;11074;48.596;9.238;2023-05-07T04:21:13;6.45;;;2.88;;
21822;SDS011;11074;48.596;9.238;2023-05-07T04:23:43;3.40;;;2.85;;
21822;SDS011;11074;48.596;9.238;2023-05-07T04:26:11;8.40;;;2.95;;
21822;SDS011;11074;48.596;9.238;2023-05-07T04:28:37;5.43;;;2.67;;
21822;SDS011;11074;48.596;9.238;2023-05-07T04:31:04;6.75;;;3.17;;
21822;SDS011;11074;48.596;9.238;2023-05-07T04:33:30;5.20;;;2.85;;
21822;SDS011;11074;48.596;9.238;2023-05-07T04:35:56;7.70;;;3.00;;
21822;SDS011;11074;48.596;9.238;2023-05-07T04:38:27;5.18;;;2.67;;
21822;SDS011;11074;48.596;9.238;2023-05-07T04:40:56;8.32;;;3.00;;
21822;SDS011;11074;48.596;9.238;2023-05-07T04:43:27;4.53;;;2.83;;
21822;SDS011;11074;48.596;9.238;2023-05-07T04:45:53;3.75;;;2.88;;
21822;SDS011;11074;48.596;9.238;2023-05-07T04:48:22;4.25;;;3.10;;
21822;SDS011;11074;48.596;9.238;2023-05-07T04:50:48;5.38;;;2.67;;
21822;SDS011;11074;48.596;9.238;2023-05-07T04:53:17;3.75;;;2.70;;
21822;SDS011;11074;48.596;9.238;2023-05-07T04:55:43;4.97;;;2.92;;
21822;SDS011;11074;48.596;9.238;2023-05-07T04:58:10;4.88;;;2.92;;
21822;SDS011;11074;48.596;9.238;2023-05-07T05:00:37;3.63;;;2.70;;
21822;SDS011;11074;48.596;9.238;2023-05-07T05:03:07;10.07;;;2.90;;
21822;SDS011;11074;48.596;9.238;2023-05-07T05:05:33;7.93;;;3.25;;
21822;SDS011;11074;48.596;9.238;2023-05-07T05:07:58;6.18;;;3.05;;
21822;SDS011;11074;48.596;9.238;2023-05-07T05:10:24;4.13;;;2.67;;
21822;SDS011;11074;48.596;9.238;2023-05-07T05:12:50;6.22;;;3.00;;
21822;SDS011;11074;48.596;9.238;2023-05-07T05:15:16;10.35;;;2.90;;
21822;SDS011;11074;48.596;9.238;2023-05-07T05:17:42;4.72;;;3.13;;
21822;SDS011;11074;48.596;9.238;2023-05-07T05:20:07;5.80;;;3.17;;
21822;SDS011;11074;48.596;9.238;2023-05-07T05:22:35;3.60;;;2.60;;
21822;SDS011;11074;48.596;9.238;2023-05-07T05:25:01;6.75;;;2.42;;
21822;SDS011;11074;48.596;9.238;2023-05-07T05:27:27;5.38;;;3.28;;
21822;SDS011;11074;48.596;9.238;2023-05-07T05:29:53;4.05;;;3.05;;
21822;SDS011;11074;48.596;9.238;2023-05-07T05:32:19;4.97;;;3.00;;
21822;SDS011;11074;48.596;9.238;2023-05-07T05:34:45;6.10;;;3.20;;
21822;SDS011;11074;48.596;9.238;2023-05-07T05:37:10;4.60;;;3.13;;
21822;SDS011;11074;48.596;9.238;2023-05-07T05:39:36;6.65;;;2.80;;
21822;SDS011;11074;48.596;9.238;2023-05-07T05:42:02;3.45;;;2.65;;
21822;SDS011;11074;48.596;9.238;2023-05-07T05:44:28;5.13;;;2.83;;
21822;SDS011;11074;48.596;9.238;2023-05-07T05:46:53;4.05;;;3.03;;
21822;SDS011;11074;48.596;9.238;2023-05-07T05:49:23;7.15;;;2.90;;
21822;SDS011;11074;48.596;9.238;2023-05-07T05:51:49;4.45;;;2.80;;
21822;SDS011;11074;48.596;9.238;2023-05-07T05:54:14;4.72;;;3.00;;
21822;SDS011;11074;48.596;9.238;2023-05-07T05:56:41;5.65;;;2.72;;
21822;SDS011;11074;48.596;9.238;2023-05-07T05:59:12;5.65;;;2.80;;
21822;SDS011;11074;48.596;9.238;2023-05-07T06:01:38;4.13;;;2.80;;
21822;SDS011;11074;48.596;9.238;2023-05-07T06:04:04;5.00;;;2.92;;
21822;SDS011;11074;48.596;9.238;2023-05-07T06:06:29;5.25;;;3.20;;
21822;SDS011;11074;48.596;9.238;2023-05-07T06:08:56;4.85;;;3.10;;
21822;SDS011;11074;48.596;9.238;2023-05-07T06:11:22;5.22;;;3.13;;
21822;SDS011;11074;48.596;9.238;2023-05-07T06:13:48;3.88;;;2.80;;
21822;SDS011;11074;48.596;9.238;2023-05-07T06:16:14;4.03;;;3.17;;
21822;SDS011;11074;48.596;9.238;2023-05-07T06:18:40;6.32;;;3.20;;
21822;SDS011;11074;48.596;9.238;2023-05-07T06:21:05;4.68;;;3.30;;
21822;SDS011;11074;48.596;9.238;2023-05-07T06:23:31;6.50;;;3.08;;
21822;SDS011;11074;48.596;9.238;2023-05-07T06:25:57;6.30;;;3.25;;
21822;SDS011;11074;48.596;9.238;2023-05-07T06:28:22;5.05;;;3.00;;
21822;SDS011;11074;48.596;9.238;2023-05-07T06:30:48;4.93;;;3.28;;
21822;SDS011;11074;48.596;9.238;2023-05-07T06:33:15;3.90;;;3.03;;
21822;SDS011;11074;48.596;9.238;2023-05-07T06:35:41;5.40;;;3.13;;
21822;SDS011;11074;48.596;9.238;2023-05-07T06:38:06;4.40;;;3.47;;
21822;SDS011;11074;48.596;9.238;2023-05-07T06:40:32;5.03;;;3.35;;
21822;SDS011;11074;48.596;9.238;2023-05-07T06:42:58;5.40;;;3.35;;
21822;SDS011;11074;48.596;9.238;2023-05-07T06:45:23;4.78;;;3.22;;
21822;SDS011;11074;48.596;9.238;2023-05-07T06:47:50;7.88;;;3.38;;
21822;SDS011;11074;48.596;9.238;2023-05-07T06:50:15;6.50;;;3.40;;
21822;SDS011;11074;48.596;9.238;2023-05-07T06:52:42;5.63;;;3.50;;
21822;SDS011;11074;48.596;9.238;2023-05-07T06:55:08;4.90;;;3.75;;
21822;SDS011;11074;48.596;9.238;2023-05-07T06:57:34;5.45;;;3.70;;
21822;SDS011;11074;48.596;9.238;2023-05-07T06:59:59;6.03;;;3.42;;
21822;SDS011;11074;48.596;9.238;2023-05-07T07:02:25;6.95;;;3.60;;
21822;SDS011;11074;48.596;9.238;2023-05-07T07:04:51;3.80;;;3.35;;
21822;SDS011;11074;48.596;9.238;2023-05-07T07:07:17;5.68;;;3.85;;
21822;SDS011;11074;48.596;9.238;2023-05-07T07:09:42;5.75;;;3.42;;
21822;SDS011;11074;48.596;9.238;2023-05-07T07:12:08;6.47;;;3.72;;
21822;SDS011;11074;48.596;9.238;2023-05-07T07:14:33;6.32;;;4.10;;
21822;SDS011;11074;48.596;9.238;2023-05-07T07:16:59;6.28;;;3.70;;
21822;SDS011;11074;48.596;9.238;2023-05-07T07:19:25;5.43;;;3.63;;
21822;SDS011;11074;48.596;9.238;2023-05-07T07:21:51;7.65;;;3.70;;
21822;SDS011;11074;48.596;9.238;2023-05-07T07:24:17;5.40;;;3.45;;
21822;SDS011;11074;48.596;9.238;2023-05-07T07:26:45;4.60;;;3.38;;
21822;SDS011;11074;48.596;9.238;2023-05-07T07:29:11;4.63;;;3.30;;
21822;SDS011;11074;48.596;9.238;2023-05-07T07:31:37;6.75;;;3.40;;
21822;SDS011;11074;48.596;9.238;2023-05-07T07:34:03;5.18;;;3.30;;
21822;SDS011;11074;48.596;9.238;2023-05-07T07:36:28;6.25;;;3.53;;
21822;SDS011;11074;48.596;9.238;2023-05-07T07:38:55;6.60;;;3.60;;
21822;SDS011;11074;48.596;9.238;2023-05-07T07:41:20;6.75;;;3.70;;
21822;SDS011;11074;48.596;9.238;2023-05-07T07:43:46;7.22;;;3.70;;
21822;SDS011;11074;48.596;9.238;2023-05-07T07:46:12;5.25;;;3.50;;
21822;SDS011;11074;48.596;9.238;2023-05-07T07:48:38;5.20;;;3.42;;
21822;SDS011;11074;48.596;9.238;2023-05-07T07:51:03;5.40;;;3.50;;
21822;SDS011;11074;48.596;9.238;2023-05-07T07:53:29;5.47;;;3.40;;
21822;SDS011;11074;48.596;9.238;2023-05-07T07:55:55;3.78;;;2.92;;
21822;SDS011;11074;48.596;9.238;2023-05-07T07:58:21;5.28;;;3.60;;
21822;SDS011;11074;48.596;9.238;2023-05-07T08:00:47;6.18;;;3.40;;
21822;SDS011;11074;48.596;9.238;2023-05-07T08:03:13;5.30;;;3.38;;
21822;SDS011;11074;48.596;9.238;2023-05-07T08:05:41;5.90;;;3.40;;
21822;SDS011;11074;48.596;9.238;2023-05-07T08:08:07;4.57;;;3.10;;
21822;SDS011;11074;48.596;9.238;2023-05-07T08:10:33;5.22;;;3.40;;
21822;SDS011;11074;48.596;9.238;2023-05-07T08:13:03;4.65;;;3.30;;
21822;SDS011;11074;48.596;9.238;2023-05-07T08:15:30;4.20;;;3.38;;
21822;SDS011;11074;48.596;9.238;2023-05-07T08:17:56;6.57;;;3.65;;
21822;SDS011;11074;48.596;9.238;2023-05-07T08:20:23;6.10;;;3.22;;
21822;SDS011;11074;48.596;9.238;2023-05-07T08:22:48;5.35;;;3.13;;
21822;SDS011;11074;48.596;9.238;2023-05-07T08:25:16;5.65;;;3.38;;
21822;SDS011;11074;48.596;9.238;2023-05-07T08:27:41;4.18;;;2.95;;
21822;SDS011;11074;48.596;9.238;2023-05-07T08:30:07;4.43;;;3.08;;
21822;SDS011;11074;48.596;9.238;2023-05-07T08:32:34;5.95;;;3.25;;
21822;SDS011;11074;48.596;9.238;2023-05-07T08:34:59;4.20;;;3.00;;
21822;SDS011;11074;48.596;9.238;2023-05-07T08:37:25;4.47;;;3.22;;
21822;SDS011;11074;48.596;9.238;2023-05-07T08:39:51;4.35;;;3.58;;
21822;SDS011;11074;48.596;9.238;2023-05-07T08:42:17;3.30;;;3.00;;
21822;SDS011;11074;48.596;9.238;2023-05-07T08:44:44;4.82;;;3.20;;
21822;SDS011;11074;48.596;9.238;2023-05-07T08:47:12;9.00;;;3.40;;
21822;SDS011;11074;48.596;9.238;2023-05-07T08:49:37;4.43;;;2.95;;
21822;SDS011;11074;48.596;9.238;2023-05-07T08:52:04;4.00;;;2.80;;
21822;SDS011;11074;48.596;9.238;2023-05-07T08:54:30;4.90;;;3.00;;
21822;SDS011;11074;48.596;9.238;2023-05-07T08:56:57;4.63;;;2.78;;
21822;SDS011;11074;48.596;9.238;2023-05-07T08:59:23;3.92;;;2.70;;
21822;SDS011;11074;48.596;9.238;2023-05-07T09:01:48;5.78;;;3.03;;
21822;SDS011;11074;48.596;9.238;2023-05-07T09:04:14;6.10;;;2.50;;
21822;SDS011;11074;48.596;9.238;2023-05-07T09:06:40;3.25;;;2.47;;
21822;SDS011;11074;48.596;9.238;2023-05-07T09:09:06;4.65;;;2.63;;
21822;SDS011;11074;48.596;9.238;2023-05-07T09:11:33;6.80;;;2.80;;
21822;SDS011;11074;48.596;9.238;2023-05-07T09:13:58;3.72;;;2.53;;
21822;SDS011;11074;48.596;9.238;2023-05-07T09:16:28;3.40;;;2.60;;
21822;SDS011;11074;48.596;9.238;2023-05-07T09:18:56;4.72;;;2.50;;
21822;SDS011;11074;48.596;9.238;2023-05-07T09:21:25;3.15;;;2.30;;
21822;SDS011;11074;48.596;9.238;2023-05-07T09:23:54;4.43;;;2.30;;
21822;SDS011;11074;48.596;9.238;2023-05-07T09:26:21;3.83;;;2.30;;
21822;SDS011;11074;48.596;9.238;2023-05-07T09:28:47;5.20;;;2.60;;
21822;SDS011;11074;48.596;9.238;2023-05-07T09:31:13;3.30;;;2.72;;
21822;SDS011;11074;48.596;9.238;2023-05-07T09:33:39;5.13;;;2.30;;
21822;SDS011;11074;48.596;9.238;2023-05-07T09:36:06;4.72;;;2.75;;
21822;SDS011;11074;48.596;9.238;2023-05-07T09:38:35;3.55;;;2.50;;
21822;SDS011;11074;48.596;9.238;2023-05-07T09:41:03;3.33;;;2.50;;
21822;SDS011;11074;48.596;9.238;2023-05-07T09:43:35;2.85;;;2.13;;
21822;SDS011;11074;48.596;9.238;2023-05-07T09:46:06;3.40;;;2.47;;
21822;SDS011;11074;48.596;9.238;2023-05-07T09:48:40;3.40;;;2.45;;
21822;SDS011;11074;48.596;9.238;2023-05-07T09:51:11;2.92;;;2.40;;
21822;SDS011;11074;48.596;9.238;2023-05-07T09:53:52;3.30;;;2.35;;
21822;SDS011;11074;48.596;9.238;2023-05-07T09:56:18;3.80;;;2.47;;
21822;SDS011;11074;48.596;9.238;2023-05-07T09:58:45;3.63;;;2.30;;
21822;SDS011;11074;48.596;9.238;2023-05-07T10:01:12;2.95;;;2.38;;
21822;SDS011;11074;48.596;9.238;2023-05-07T10:03:40;3.83;;;2.45;;
21822;SDS011;11074;48.596;9.238;2023-05-07T10:06:08;3.22;;;2.40;;
21822;SDS011;11074;48.596;9.238;2023-05-07T10:08:35;2.95;;;2.00;;
21822;SDS011;11074;48.596;9.238;2023-05-07T10:11:03;3.60;;;2.33;;
21822;SDS011;11074;48.596;9.238;2023-05-07T10:13:30;3.53;;;2.05;;
21822;SDS011;11074;48.596;9.238;2023-05-07T10:16:03;3.38;;;2.03;;
21822;SDS011;11074;48.596;9.238;2023-05-07T10:18:30;4.38;;;2.10;;
21822;SDS011;11074;48.596;9.238;2023-05-07T10:21:07;4.28;;;2.75;;
21822;SDS011;11074;48.596;9.238;2023-05-07T10:23:36;5.22;;;2.60;;
21822;SDS011;11074;48.596;9.238;2023-05-07T10:26:06;5.97;;;3.15;;
21822;SDS011;11074;48.596;9.238;2023-05-07T10:28:34;4.88;;;2.30;;
21822;SDS011;11074;48.596;9.238;2023-05-07T10:31:15;4.00;;;2.70;;
21822;SDS011;11074;48.596;9.238;2023-05-07T10:34:02;4.55;;;3.00;;
21822;SDS011;11074;48.596;9.238;2023-05-07T10:36:37;3.25;;;2.17;;
21822;SDS011;11074;48.596;9.238;2023-05-07T10:39:04;4.53;;;2.20;;
21822;SDS011;11074;48.596;9.238;2023-05-07T10:41:31;2.45;;;2.13;;
21822;SDS011;11074;48.596;9.238;2023-05-07T10:43:57;3.97;;;2.10;;
21822;SDS011;11074;48.596;9.238;2023-05-07T10:46:26;4.40;;;2.45;;
21822;SDS011;11074;48.596;9.238;2023-05-07T10:51:30;3.65;;;2.35;;
21822;SDS011;11074;48.596;9.238;2023-05-07T10:54:19;2.65;;;2.03;;
21822;SDS011;11074;48.596;9.238;2023-05-07T10:56:46;4.28;;;1.80;;
21822;SDS011;11074;48.596;9.238;2023-05-07T11:02:04;2.60;;;1.73;;
21822;SDS011;11074;48.596;9.238;2023-05-07T11:04:32;4.05;;;1.60;;
21822;SDS011;11074;48.596;9.238;2023-05-07T11:15:04;2.97;;;1.83;;
21822;SDS011;11074;48.596;9.238;2023-05-07T11:17:57;3.75;;;1.70;;
21822;SDS011;11074;48.596;9.238;2023-05-07T11:25:59;3.58;;;1.70;;
21822;SDS011;11074;48.596;9.238;2023-05-07T11:28:30;4.43;;;1.80;;
21822;SDS011;11074;48.596;9.238;2023-05-07T11:31:01;2.00;;;1.80;;
21822;SDS011;11074;48.596;9.238;2023-05-07T11:33:28;2.63;;;1.73;;
21822;SDS011;11074;48.596;9.238;2023-05-07T11:35:55;2.60;;;2.10;;
21822;SDS011;11074;48.596;9.238;2023-05-07T11:38:22;2.80;;;1.75;;
21822;SDS011;11074;48.596;9.238;2023-05-07T11:40:55;2.75;;;1.70;;
21822;SDS011;11074;48.596;9.238;2023-05-07T11:43:25;1.90;;;1.67;;
21822;SDS011;11074;48.596;9.238;2023-05-07T11:45:52;2.72;;;1.63;;
21822;SDS011;11074;48.596;9.238;2023-05-07T11:48:18;2.92;;;1.73;;
21822;SDS011;11074;48.596;9.238;2023-05-07T11:50:53;2.65;;;1.67;;
21822;SDS011;11074;48.596;9.238;2023-05-07T11:53:35;3.35;;;1.50;;
21822;SDS011;11074;48.596;9.238;2023-05-07T11:56:13;3.05;;;1.90;;
21822;SDS011;11074;48.596;9.238;2023-05-07T11:58:41;2.78;;;1.52;;
21822;SDS011;11074;48.596;9.238;2023-05-07T12:01:09;3.33;;;1.60;;
21822;SDS011;11074;48.596;9.238;2023-05-07T12:03:40;3.13;;;1.90;;
21822;SDS011;11074;48.596;9.238;2023-05-07T12:06:07;4.32;;;1.52;;
21822;SDS011;11074;48.596;9.238;2023-05-07T12:08:36;5.78;;;1.50;;
21822;SDS011;11074;48.596;9.238;2023-05-07T12:11:03;2.85;;;1.35;;
21822;SDS011;11074;48.596;9.238;2023-05-07T12:13:34;3.60;;;1.20;;
21822;SDS011;11074;48.596;9.238;2023-05-07T12:16:00;2.35;;;1.23;;
21822;SDS011;11074;48.596;9.238;2023-05-07T12:18:30;2.25;;;1.10;;
21822;SDS011;11074;48.596;9.238;2023-05-07T12:20:56;4.18;;;1.23;;
21822;SDS011;11074;48.596;9.238;2023-05-07T12:23:22;3.95;;;1.10;;
21822;SDS011;11074;48.596;9.238;2023-05-07T12:25:48;1.08;;;0.75;;
21822;SDS011;11074;48.596;9.238;2023-05-07T12:28:14;2.10;;;0.77;;
21822;SDS011;11074;48.596;9.238;2023-05-07T12:30:43;1.67;;;1.00;;
21822;SDS011;11074;48.596;9.238;2023-05-07T12:33:11;1.65;;;0.90;;
21822;SDS011;11074;48.596;9.238;2023-05-07T12:35:40;2.05;;;1.00;;
21822;SDS011;11074;48.596;9.238;2023-05-07T12:38:17;3.53;;;1.30;;
21822;SDS011;11074;48.596;9.238;2023-05-07T12:40:43;2.35;;;0.90;;
21822;SDS011;11074;48.596;9.238;2023-05-07T12:43:24;2.15;;;1.20;;
21822;SDS011;11074;48.596;9.238;2023-05-07T12:45:54;2.60;;;1.08;;
21822;SDS011;11074;48.596;9.238;2023-05-07T12:48:31;2.85;;;1.30;;
21822;SDS011;11074;48.596;9.238;2023-05-07T12:50:57;1.83;;;1.00;;
21822;SDS011;11074;48.596;9.238;2023-05-07T12:53:25;1.25;;;0.93;;
21822;SDS011;11074;48.596;9.238;2023-05-07T12:55:55;2.20;;;1.00;;
21822;SDS011;11074;48.596;9.238;2023-05-07T12:58:29;2.33;;;1.50;;
21822;SDS011;11074;48.596;9.238;2023-05-07T13:00:59;2.85;;;1.23;;
21822;SDS011;11074;48.596;9.238;2023-05-07T13:03:31;1.70;;;1.27;;
21822;SDS011;11074;48.596;9.238;2023-05-07T13:05:59;3.53;;;1.42;;
21822;SDS011;11074;48.596;9.238;2023-05-07T13:08:37;2.20;;;1.23;;
21822;SDS011;11074;48.596;9.238;2023-05-07T13:11:10;4.57;;;1.38;;
21822;SDS011;11074;48.596;9.238;2023-05-07T13:13:38;2.67;;;1.20;;
21822;SDS011;11074;48.596;9.238;2023-05-07T13:16:06;1.65;;;1.20;;
21822;SDS011;11074;48.596;9.238;2023-05-07T13:18:35;2.97;;;1.23;;
21822;SDS011;11074;48.596;9.238;2023-05-07T13:21:01;1.60;;;1.10;;
21822;SDS011;11074;48.596;9.238;2023-05-07T13:23:27;3.35;;;1.33;;
21822;SDS011;11074;48.596;9.238;2023-05-07T13:25:53;3.90;;;1.15;;
21822;SDS011;11074;48.596;9.238;2023-05-07T13:28:20;2.92;;;1.20;;
21822;SDS011;11074;48.596;9.238;2023-05-07T13:30:47;2.53;;;1.30;;
21822;SDS011;11074;48.596;9.238;2023-05-07T13:33:13;2.45;;;1.40;;
21822;SDS011;11074;48.596;9.238;2023-05-07T13:35:40;3.17;;;1.30;;
21822;SDS011;11074;48.596;9.238;2023-05-07T13:38:06;2.75;;;1.48;;
21822;SDS011;11074;48.596;9.238;2023-05-07T13:40:31;3.30;;;1.45;;
21822;SDS011;11074;48.596;9.238;2023-05-07T13:42:57;3.50;;;1.75;;
21822;SDS011;11074;48.596;9.238;2023-05-07T13:45:26;3.72;;;1.95;;
21822;SDS011;11074;48.596;9.238;2023-05-07T13:47:54;4.28;;;1.80;;
21822;SDS011;11074;48.596;9.238;2023-05-07T13:50:21;5.30;;;1.92;;
21822;SDS011;11074;48.596;9.238;2023-05-07T13:52:47;4.28;;;1.80;;
21822;SDS011;11074;48.596;9.238;2023-05-07T13:55:19;4.97;;;2.15;;
21822;SDS011;11074;48.596;9.238;2023-05-07T13:57:48;6.60;;;2.20;;
21822;SDS011;11074;48.596;9.238;2023-05-07T14:00:24;5.47;;;2.00;;
21822;SDS011;11074;48.596;9.238;2023-05-07T14:02:52;3.70;;;2.20;;
21822;SDS011;11074;48.596;9.238;2023-05-07T14:05:18;4.78;;;2.30;;
21822;SDS011;11074;48.596;9.238;2023-05-07T14:07:44;6.28;;;2.35;;
21822;SDS011;11074;48.596;9.238;2023-05-07T14:10:09;4.70;;;2.03;;
21822;SDS011;11074;48.596;9.238;2023-05-07T14:12:36;4.57;;;2.10;;
21822;SDS011;11074;48.596;9.238;2023-05-07T14:15:02;3.95;;;2.20;;
21822;SDS011;11074;48.596;9.238;2023-05-07T14:17:28;4.35;;;2.20;;
21822;SDS011;11074;48.596;9.238;2023-05-07T14:19:55;4.25;;;2.08;;
21822;SDS011;11074;48.596;9.238;2023-05-07T14:22:22;4.25;;;2.10;;
21822;SDS011;11074;48.596;9.238;2023-05-07T14:24:48;6.15;;;2.90;;
21822;SDS011;11074;48.596;9.238;2023-05-07T14:27:15;6.95;;;2.22;;
21822;SDS011;11074;48.596;9.238;2023-05-07T14:29:41;6.18;;;2.10;;
21822;SDS011;11074;48.596;9.238;2023-05-07T14:32:07;3.75;;;2.33;;
21822;SDS011;11074;48.596;9.238;2023-05-07T14:34:33;6.13;;;2.67;;
21822;SDS011;11074;48.596;9.238;2023-05-07T14:36:59;9.65;;;5.22;;
21822;SDS011;11074;48.596;9.238;2023-05-07T14:39:26;7.30;;;4.50;;
21822;SDS011;11074;48.596;9.238;2023-05-07T14:41:52;6.30;;;3.70;;
21822;SDS011;11074;48.596;9.238;2023-05-07T14:44:19;6.82;;;3.53;;
21822;SDS011;11074;48.596;9.238;2023-05-07T14:46:45;7.07;;;2.90;;
21822;SDS011;11074;48.596;9.238;2023-05-07T14:49:11;5.65;;;2.70;;
21822;SDS011;11074;48.596;9.238;2023-05-07T14:51:42;5.13;;;2.58;;
21822;SDS011;11074;48.596;9.238;2023-05-07T14:54:12;4.47;;;2.75;;
21822;SDS011;11074;48.596;9.238;2023-05-07T14:56:39;7.75;;;2.50;;
21822;SDS011;11074;48.596;9.238;2023-05-07T14:59:06;10.27;;;2.55;;
21822;SDS011;11074;48.596;9.238;2023-05-07T15:01:34;4.35;;;2.42;;
21822;SDS011;11074;48.596;9.238;2023-05-07T15:04:02;6.57;;;2.45;;
21822;SDS011;11074;48.596;9.238;2023-05-07T15:06:29;5.88;;;2.30;;
21822;SDS011;11074;48.596;9.238;2023-05-07T15:08:54;6.45;;;3.05;;